createdAt,value
2022-09-23T00:01:01.695Z,64.18
2022-09-23T00:06:16.348Z,64.30
2022-09-23T00:11:25.079Z,64.46
2022-09-23T00:16:32.774Z,64.42
2022-09-23T00:21:36.217Z,64.74
2022-09-23T00:26:38.985Z,64.47
2022-09-23T00:31:42.357Z,64.46
2022-09-23T00:36:45.260Z,64.43
2022-09-23T00:41:48.036Z,64.50
2022-09-23T00:46:50.875Z,64.62
2022-09-23T00:51:59.058Z,64.37
2022-09-23T00:57:05.423Z,64.61
2022-09-23T01:02:10.027Z,64.62
2022-09-23T01:07:13.807Z,64.67
2022-09-23T01:12:29.448Z,64.78
2022-09-23T01:17:44.509Z,64.76
2022-09-23T01:23:24.918Z,64.74
2022-09-23T01:29:20.580Z,64.78
2022-09-23T01:34:51.196Z,65.02
2022-09-23T01:40:21.507Z,65.11
2022-09-23T01:45:27.401Z,65.28
2022-09-23T01:50:56.474Z,65.35
2022-09-23T01:56:05.414Z,65.28
2022-09-23T02:01:11.597Z,65.44
2022-09-23T02:06:21.035Z,65.13
2022-09-23T02:11:24.779Z,65.18
2022-09-23T02:16:45.258Z,65.44
2022-09-23T02:21:55.559Z,65.36
2022-09-23T02:27:31.421Z,65.62
2022-09-23T02:32:54.811Z,65.35
2022-09-23T02:38:19.298Z,65.65
2022-09-23T02:43:35.619Z,65.31
2022-09-23T02:48:47.308Z,65.46
2022-09-23T02:53:50.137Z,65.51
2022-09-23T02:58:54.730Z,65.41
2022-09-23T03:04:31.707Z,65.63
2022-09-23T03:09:53.325Z,65.59
2022-09-23T03:15:05.838Z,65.83
2022-09-23T03:20:15.489Z,65.69
2022-09-23T03:25:22.427Z,65.73
2022-09-23T03:30:26.579Z,65.49
2022-09-23T03:35:33.717Z,65.87
2022-09-23T03:40:45.905Z,65.64
2022-09-23T03:45:49.136Z,65.80
2022-09-23T03:50:53.165Z,65.85
2022-09-23T03:55:57.277Z,65.96
2022-09-23T04:01:00.733Z,66.13
2022-09-23T04:06:03.865Z,65.94
2022-09-23T04:11:06.896Z,65.89
2022-09-23T04:16:09.845Z,65.89
2022-09-23T04:21:12.806Z,65.83
2022-09-23T04:26:15.596Z,65.93
2022-09-23T04:31:18.446Z,66.06
2022-09-23T04:36:22.039Z,65.91
2022-09-23T04:41:24.917Z,65.98
2022-09-23T04:46:28.325Z,65.91
2022-09-23T04:51:31.260Z,65.76
2022-09-23T04:56:34.074Z,66.05
2022-09-23T05:01:38.431Z,65.90
2022-09-23T05:06:45.229Z,66.31
2022-09-23T05:11:48.303Z,66.23
2022-09-23T05:16:51.249Z,66.27
2022-09-23T05:21:54.019Z,66.21
2022-09-23T05:26:56.852Z,66.33
2022-09-23T05:32:00.183Z,66.07
2022-09-23T05:37:05.088Z,66.08
2022-09-23T05:42:10.477Z,66.35
2022-09-23T05:47:16.956Z,66.10
2022-09-23T05:52:20.762Z,66.21
2022-09-23T05:57:24.052Z,66.35
2022-09-23T06:02:26.896Z,66.28
2022-09-23T06:07:31.281Z,66.20
2022-09-23T06:12:35.372Z,66.16
2022-09-23T06:17:38.235Z,66.00
2022-09-23T06:22:41.026Z,66.13
2022-09-23T06:27:44.310Z,65.85
2022-09-23T06:32:53.504Z,65.71
2022-09-23T06:37:56.439Z,65.81
2022-09-23T06:43:00.720Z,65.89
2022-09-23T06:48:05.002Z,65.52
2022-09-23T06:53:07.979Z,65.41
2022-09-23T06:58:11.038Z,65.31
2022-09-23T07:03:13.849Z,65.17
2022-09-23T07:08:16.657Z,65.18
2022-09-23T07:13:19.809Z,65.16
2022-09-23T07:18:26.090Z,65.09
2022-09-23T07:23:28.875Z,65.12
2022-09-23T07:28:32.298Z,65.43
2022-09-23T07:33:37.058Z,64.98
2022-09-23T07:38:45.242Z,64.74
2022-09-23T07:43:49.071Z,64.57
2022-09-23T07:48:53.262Z,64.54
2022-09-23T07:53:56.768Z,64.70
2022-09-23T07:59:04.343Z,64.34
2022-09-23T08:04:15.946Z,64.10
2022-09-23T08:09:23.766Z,63.69
2022-09-23T08:14:27.071Z,63.61
2022-09-23T08:19:29.894Z,63.50
2022-09-23T08:24:32.722Z,63.36
2022-09-23T08:29:35.715Z,63.18
2022-09-23T08:34:38.673Z,63.46
2022-09-23T08:39:41.632Z,63.30
2022-09-23T08:44:55.347Z,62.79
2022-09-23T08:50:18.120Z,62.42
2022-09-23T08:55:29.796Z,62.29
2022-09-23T09:00:46.300Z,61.94
2022-09-23T09:05:54.348Z,61.29
2022-09-23T09:10:58.532Z,60.73
2022-09-23T09:16:36.533Z,60.39
2022-09-23T09:21:47.982Z,60.39
2022-09-23T09:26:50.972Z,60.45
2022-09-23T09:31:53.906Z,60.36
2022-09-23T09:37:31.854Z,60.47
2022-09-23T09:42:40.981Z,60.40
2022-09-23T09:47:53.908Z,60.17
2022-09-23T09:53:25.659Z,60.22
2022-09-23T09:58:35.449Z,60.19
2022-09-23T10:03:44.042Z,61.09
2022-09-23T10:09:10.670Z,63.89
2022-09-23T10:14:17.853Z,61.80
2022-09-23T10:19:29.349Z,61.73
2022-09-23T10:24:36.446Z,60.20
2022-09-23T10:29:48.200Z,61.32
2022-09-23T10:35:13.518Z,59.24
2022-09-23T10:40:36.904Z,57.59
2022-09-23T10:46:04.163Z,56.64
2022-09-23T10:51:29.841Z,56.60
2022-09-23T10:56:41.790Z,57.03
2022-09-23T11:02:12.337Z,57.00
2022-09-23T11:07:41.446Z,55.33
2022-09-23T11:12:55.734Z,55.20
2022-09-23T11:18:10.811Z,54.79
2022-09-23T11:23:32.602Z,55.38
2022-09-23T11:28:46.866Z,56.29
2022-09-23T11:33:58.659Z,54.63
2022-09-23T11:39:07.935Z,53.65
2022-09-23T11:44:26.329Z,53.30
2022-09-23T11:49:57.939Z,52.60
2022-09-23T11:55:11.074Z,53.22
2022-09-23T12:00:26.834Z,53.12
2022-09-23T12:05:45.941Z,53.18
2022-09-23T12:11:22.202Z,52.69
2022-09-23T12:16:43.803Z,52.92
2022-09-23T12:22:05.856Z,52.36
2022-09-23T12:27:21.626Z,52.33
2022-09-23T12:32:25.242Z,51.68
2022-09-23T12:37:34.207Z,51.59
2022-09-23T12:42:44.730Z,51.15
2022-09-23T12:47:48.627Z,50.32
2022-09-23T12:52:51.504Z,49.78
2022-09-23T12:57:54.332Z,50.15
2022-09-23T13:03:18.994Z,49.61
2022-09-23T13:08:25.075Z,48.59
2022-09-23T13:13:41.749Z,48.25
2022-09-23T13:19:05.566Z,48.47
2022-09-23T13:24:14.491Z,48.14
2022-09-23T13:29:24.215Z,47.80
2022-09-23T13:34:33.553Z,47.22
2022-09-23T13:39:36.706Z,46.69
2022-09-23T13:44:40.920Z,45.80
2022-09-23T13:49:43.965Z,44.45
2022-09-23T13:54:49.915Z,44.69
2022-09-23T13:59:53.174Z,44.61
2022-09-23T14:04:58.553Z,44.52
2022-09-23T14:10:01.541Z,44.49
2022-09-23T14:15:14.221Z,44.49
2022-09-23T14:20:20.284Z,44.80
2022-09-23T14:25:23.294Z,45.25
2022-09-23T14:30:26.590Z,46.13
2022-09-23T14:35:42.306Z,46.48
2022-09-23T14:40:54.769Z,46.58
2022-09-23T14:45:59.320Z,46.82
2022-09-23T14:51:06.815Z,47.08
2022-09-23T14:56:20.461Z,47.24
2022-09-23T15:01:31.092Z,46.76
2022-09-23T15:06:37.305Z,46.77
2022-09-23T15:11:40.870Z,47.57
2022-09-23T15:16:43.968Z,47.71
2022-09-23T15:21:53.017Z,46.79
2022-09-23T15:26:58.133Z,45.70
2022-09-23T15:32:01.320Z,45.66
2022-09-23T15:37:04.467Z,46.09
2022-09-23T15:42:10.295Z,46.63
2022-09-23T15:47:18.689Z,47.09
2022-09-23T15:52:22.917Z,47.64
2022-09-23T15:57:26.139Z,48.04
2022-09-23T16:02:29.660Z,49.49
2022-09-23T16:07:32.747Z,48.97
2022-09-23T16:12:37.026Z,49.08
2022-09-23T16:17:39.885Z,49.45
2022-09-23T16:22:42.863Z,50.13
2022-09-23T16:27:45.744Z,50.59
2022-09-23T16:32:48.571Z,51.04
2022-09-23T16:37:52.907Z,51.57
2022-09-23T16:42:58.425Z,51.84
2022-09-23T16:48:01.319Z,52.30
2022-09-23T16:53:04.713Z,52.69
2022-09-23T16:58:07.950Z,53.02
2022-09-23T17:03:31.390Z,53.34
2022-09-23T17:08:34.577Z,53.66
2022-09-23T17:13:42.447Z,54.03
2022-09-23T17:18:45.547Z,54.32
2022-09-23T17:23:48.572Z,54.43
2022-09-23T17:28:54.428Z,54.68
2022-09-23T17:33:57.497Z,54.78
2022-09-23T17:39:00.410Z,55.08
2022-09-23T17:44:04.816Z,55.31
2022-09-23T17:49:08.572Z,55.45
2022-09-23T17:54:12.215Z,55.65
2022-09-23T17:59:15.102Z,55.90
2022-09-23T18:04:18.374Z,55.93
2022-09-23T18:09:21.427Z,56.16
2022-09-23T18:14:24.352Z,56.46
2022-09-23T18:19:27.890Z,56.31
2022-09-23T18:24:33.587Z,56.59
2022-09-23T18:29:38.731Z,56.71
2022-09-23T18:34:41.725Z,56.89
2022-09-23T18:39:44.831Z,57.08
2022-09-23T18:44:50.024Z,57.38
2022-09-23T18:50:11.819Z,57.29
2022-09-23T18:55:15.263Z,57.56
2022-09-23T19:00:18.335Z,57.82
2022-09-23T19:05:21.315Z,57.96
2022-09-23T19:10:24.491Z,58.22
2022-09-23T19:15:27.705Z,58.54
2022-09-23T19:20:30.771Z,58.65
2022-09-23T19:25:36.417Z,58.72
2022-09-23T19:30:40.041Z,58.83
2022-09-23T19:35:51.477Z,58.97
2022-09-23T19:40:55.410Z,59.02
2022-09-23T19:45:58.281Z,59.43
2022-09-23T19:51:03.149Z,59.21
2022-09-23T19:56:06.495Z,59.75
2022-09-23T20:01:11.987Z,59.73
2022-09-23T20:06:16.611Z,59.85
2022-09-23T20:11:27.598Z,59.84
2022-09-23T20:16:34.358Z,59.76
2022-09-23T20:21:37.644Z,59.80
2022-09-23T20:26:59.169Z,59.57
2022-09-23T20:32:02.972Z,59.81
2022-09-23T20:37:06.220Z,59.70
2022-09-23T20:42:09.348Z,59.98
2022-09-23T20:47:14.178Z,60.05
2022-09-23T20:52:20.337Z,60.35
2022-09-23T20:57:23.210Z,60.21
2022-09-23T21:02:27.539Z,60.97
2022-09-23T21:07:32.119Z,60.56
2022-09-23T21:12:35.380Z,60.81
2022-09-23T21:17:38.216Z,61.24
2022-09-23T21:22:41.176Z,60.86
2022-09-23T21:27:45.110Z,60.96
2022-09-23T21:32:48.098Z,61.20
2022-09-23T21:37:50.976Z,60.80
2022-09-23T21:42:59.070Z,60.43
2022-09-23T21:48:02.482Z,60.94
2022-09-23T21:53:06.830Z,60.78
2022-09-23T21:58:09.681Z,60.85
2022-09-23T22:03:12.586Z,61.19
2022-09-23T22:08:15.358Z,61.32
2022-09-23T22:13:18.275Z,61.57
2022-09-23T22:18:21.078Z,61.59
2022-09-23T22:23:24.242Z,61.82
2022-09-23T22:28:45.421Z,61.61
2022-09-23T22:33:50.135Z,61.71
2022-09-23T22:38:59.207Z,61.50
2022-09-23T22:44:03.437Z,61.85
2022-09-23T22:49:07.565Z,61.72
2022-09-23T22:54:11.261Z,61.86
2022-09-23T22:59:14.408Z,61.74
2022-09-23T23:04:17.645Z,61.90
2022-09-23T23:09:20.723Z,61.51
2022-09-23T23:14:23.719Z,61.53
2022-09-23T23:19:26.538Z,61.70
2022-09-23T23:24:29.568Z,61.94
2022-09-23T23:29:32.457Z,61.80
2022-09-23T23:34:35.333Z,62.20
2022-09-23T23:39:38.157Z,62.05
2022-09-23T23:44:41.091Z,61.90
2022-09-23T23:49:43.988Z,62.03
2022-09-23T23:54:46.960Z,62.17
2022-09-23T23:59:49.797Z,62.32
